createdAt,value
2022-11-28T00:01:20.459Z,100761.00
2022-11-28T00:03:46.831Z,100766.53
2022-11-28T00:06:13.254Z,100766.25
2022-11-28T00:08:39.632Z,100761.53
2022-11-28T00:11:05.963Z,100763.19
2022-11-28T00:13:32.293Z,100753.50
2022-11-28T00:15:58.668Z,100748.28
2022-11-28T00:18:25.013Z,100749.97
2022-11-28T00:20:51.335Z,100750.22
2022-11-28T00:23:17.646Z,100736.94
2022-11-28T00:25:43.978Z,100736.69
2022-11-28T00:28:10.290Z,100740.06
2022-11-28T00:30:36.831Z,100738.37
2022-11-28T00:33:03.138Z,100733.38
2022-11-28T00:35:29.446Z,100724.53
2022-11-28T00:37:55.776Z,100725.41
2022-11-28T00:40:22.077Z,100708.37
2022-11-28T00:42:48.429Z,100705.91
2022-11-28T00:45:14.789Z,100708.63
2022-11-28T00:47:41.140Z,100695.91
2022-11-28T00:50:07.459Z,100706.16
2022-11-28T00:52:33.807Z,100706.94
2022-11-28T00:55:00.163Z,100702.50
2022-11-28T00:57:26.475Z,100700.31
2022-11-28T00:59:52.806Z,100697.53
2022-11-28T01:02:19.223Z,100696.12
2022-11-28T01:04:45.638Z,100698.13
2022-11-28T01:07:12.005Z,100690.38
2022-11-28T01:09:38.340Z,100704.16
2022-11-28T01:12:04.645Z,100699.47
2022-11-28T01:14:31.026Z,100695.06
2022-11-28T01:16:57.449Z,100696.50
2022-11-28T01:19:23.849Z,100696.12
2022-11-28T01:21:50.261Z,100692.06
2022-11-28T01:24:16.670Z,100680.47
2022-11-28T01:26:43.008Z,100680.38
2022-11-28T01:29:09.332Z,100685.13
2022-11-28T01:31:35.878Z,100674.91
2022-11-28T01:34:02.251Z,100674.63
2022-11-28T01:36:28.579Z,100666.09
2022-11-28T01:38:54.902Z,100666.09
2022-11-28T01:41:21.237Z,100652.84
2022-11-28T01:43:47.550Z,100658.97
2022-11-28T01:46:13.908Z,100655.09
2022-11-28T01:48:40.258Z,100656.75
2022-11-28T01:51:06.578Z,100663.69
2022-11-28T01:53:33.038Z,100656.03
2022-11-28T01:55:59.392Z,100655.44
2022-11-28T01:58:25.780Z,100654.88
2022-11-28T02:00:52.185Z,100670.91
2022-11-28T02:03:18.525Z,100650.78
2022-11-28T02:05:44.885Z,100655.16
2022-11-28T02:08:11.302Z,100654.69
2022-11-28T02:10:37.632Z,100643.16
2022-11-28T02:13:03.932Z,100642.03
2022-11-28T02:15:30.343Z,100643.13
2022-11-28T02:17:56.691Z,100640.09
2022-11-28T02:20:23.016Z,100632.75
2022-11-28T02:22:49.334Z,100631.06
2022-11-28T02:25:15.915Z,100622.81
2022-11-28T02:27:42.250Z,100626.94
2022-11-28T02:30:08.585Z,100632.97
2022-11-28T02:32:34.979Z,100618.06
2022-11-28T02:35:01.313Z,100618.88
2022-11-28T02:37:27.625Z,100613.66
2022-11-28T02:39:53.990Z,100613.44
2022-11-28T02:42:20.309Z,100618.12
2022-11-28T02:44:46.627Z,100615.09
2022-11-28T02:47:12.993Z,100608.78
2022-11-28T02:49:39.356Z,100608.72
2022-11-28T02:52:05.716Z,100602.94
2022-11-28T02:54:32.621Z,100604.34
2022-11-28T02:56:58.943Z,100605.69
2022-11-28T02:59:25.253Z,100607.94
2022-11-28T03:01:51.807Z,100601.28
2022-11-28T03:04:18.157Z,100597.69
2022-11-28T03:06:44.614Z,100598.00
2022-11-28T03:09:10.987Z,100588.91
2022-11-28T03:11:37.303Z,100587.00
2022-11-28T03:14:03.614Z,100594.72
2022-11-28T03:16:30.100Z,100582.59
2022-11-28T03:18:56.458Z,100581.75
2022-11-28T03:21:22.774Z,100582.91
2022-11-28T03:23:49.098Z,100575.41
2022-11-28T03:26:15.415Z,100579.03
2022-11-28T03:28:43.763Z,100577.09
2022-11-28T03:31:10.312Z,100566.88
2022-11-28T03:33:36.663Z,100573.00
2022-11-28T03:36:03.009Z,100561.66
2022-11-28T03:38:29.319Z,100564.94
2022-11-28T03:40:55.634Z,100572.97
2022-11-28T03:43:21.977Z,100566.06
2022-11-28T03:45:48.319Z,100564.12
2022-11-28T03:48:14.676Z,100568.81
2022-11-28T03:50:41.009Z,100564.47
2022-11-28T03:53:07.331Z,100557.34
2022-11-28T03:55:33.707Z,100554.59
2022-11-28T03:58:00.076Z,100554.81
2022-11-28T04:00:26.451Z,100560.59
2022-11-28T04:02:52.882Z,100553.47
2022-11-28T04:05:19.246Z,100555.63
2022-11-28T04:07:45.626Z,100547.44
2022-11-28T04:10:12.029Z,100545.75
2022-11-28T04:12:38.470Z,100556.31
2022-11-28T04:15:04.792Z,100551.34
2022-11-28T04:17:31.081Z,100553.78
2022-11-28T04:19:57.406Z,100554.94
2022-11-28T04:22:23.717Z,100550.25
2022-11-28T04:24:50.024Z,100555.72
2022-11-28T04:27:16.378Z,100549.16
2022-11-28T04:29:42.696Z,100552.72
2022-11-28T04:32:09.009Z,100551.09
2022-11-28T04:34:35.346Z,100552.25
2022-11-28T04:37:05.482Z,100550.84
2022-11-28T04:39:34.859Z,100549.94
2022-11-28T04:42:01.195Z,100553.28
2022-11-28T04:44:27.531Z,100553.84
2022-11-28T04:46:54.009Z,100543.13
2022-11-28T04:49:20.324Z,100545.31
2022-11-28T04:51:46.780Z,100543.66
2022-11-28T04:54:13.099Z,100536.47
2022-11-28T04:56:39.466Z,100531.53
2022-11-28T04:59:06.142Z,100544.22
2022-11-28T05:01:32.560Z,100538.44
2022-11-28T05:03:58.881Z,100536.44
2022-11-28T05:06:25.232Z,100527.09
2022-11-28T05:08:51.552Z,100521.53
2022-11-28T05:11:17.875Z,100526.50
2022-11-28T05:13:44.862Z,100531.72
2022-11-28T05:16:11.236Z,100528.37
2022-11-28T05:18:37.589Z,100523.72
2022-11-28T05:21:06.783Z,100519.31
2022-11-28T05:23:33.136Z,100518.19
2022-11-28T05:25:59.441Z,100518.78
2022-11-28T05:28:25.788Z,100508.53
2022-11-28T05:30:52.087Z,100521.50
2022-11-28T05:33:18.417Z,100505.44
2022-11-28T05:35:44.720Z,100506.50
2022-11-28T05:38:13.661Z,100503.50
2022-11-28T05:40:44.496Z,100514.25
2022-11-28T05:43:10.914Z,100508.41
2022-11-28T05:45:37.311Z,100507.34
2022-11-28T05:48:03.703Z,100509.28
2022-11-28T05:50:30.023Z,100509.19
2022-11-28T05:52:56.354Z,100497.00
2022-11-28T05:55:22.744Z,100490.12
2022-11-28T05:57:49.133Z,100494.84
2022-11-28T06:00:15.453Z,100492.34
2022-11-28T06:02:41.778Z,100487.03
2022-11-28T06:05:27.670Z,100477.13
2022-11-28T06:07:54.421Z,100495.06
2022-11-28T06:10:22.580Z,100480.91
2022-11-28T06:12:48.907Z,100483.97
2022-11-28T06:15:15.217Z,100477.37
2022-11-28T06:17:41.529Z,100469.28
2022-11-28T06:20:08.759Z,100477.03
2022-11-28T06:22:35.078Z,100481.94
2022-11-28T06:25:01.439Z,100465.88
2022-11-28T06:27:27.808Z,100465.00
2022-11-28T06:29:54.117Z,100472.53
2022-11-28T06:32:22.162Z,100474.06
2022-11-28T06:34:48.685Z,100477.13
2022-11-28T06:37:15.007Z,100468.84
2022-11-28T06:39:41.632Z,100468.50
2022-11-28T06:42:08.152Z,100470.22
2022-11-28T06:44:34.529Z,100453.84
2022-11-28T06:47:00.832Z,100454.34
2022-11-28T06:49:27.176Z,100464.88
2022-11-28T06:51:53.485Z,100463.50
2022-11-28T06:54:20.043Z,100453.78
2022-11-28T06:56:46.440Z,100453.25
2022-11-28T06:59:13.114Z,100452.94
2022-11-28T07:01:39.510Z,100454.88
2022-11-28T07:04:05.896Z,100453.13
2022-11-28T07:06:32.222Z,100452.34
2022-11-28T07:08:58.541Z,100455.66
2022-11-28T07:11:24.896Z,100452.31
2022-11-28T07:13:51.490Z,100451.72
2022-11-28T07:16:17.810Z,100449.78
2022-11-28T07:18:44.226Z,100442.84
2022-11-28T07:21:10.610Z,100430.22
2022-11-28T07:23:37.238Z,100440.91
2022-11-28T07:26:03.556Z,100434.78
2022-11-28T07:28:29.941Z,100433.16
2022-11-28T07:30:56.288Z,100433.09
2022-11-28T07:33:22.602Z,100430.34
2022-11-28T07:35:48.916Z,100434.53
2022-11-28T07:38:15.235Z,100421.47
2022-11-28T07:40:41.837Z,100427.00
2022-11-28T07:43:08.147Z,100420.28
2022-11-28T07:45:58.958Z,100421.97
2022-11-28T07:48:20.894Z,100415.31
2022-11-28T07:50:47.256Z,100408.09
2022-11-28T07:53:13.558Z,100406.41
2022-11-28T07:55:39.919Z,100396.72
2022-11-28T07:58:06.287Z,100399.53
2022-11-28T08:00:32.616Z,100400.28
2022-11-28T08:02:58.949Z,100397.22
2022-11-28T08:05:25.290Z,100407.06
2022-11-28T08:07:51.720Z,100412.16
2022-11-28T08:10:18.076Z,100399.75
2022-11-28T08:12:44.419Z,100397.75
2022-11-28T08:15:10.744Z,100398.59
2022-11-28T08:17:37.066Z,100390.81
2022-11-28T08:20:03.393Z,100389.16
2022-11-28T08:22:29.706Z,100391.47
2022-11-28T08:24:56.030Z,100389.03
2022-11-28T08:27:22.364Z,100393.41
2022-11-28T08:29:52.044Z,100385.81
2022-11-28T08:32:20.469Z,100383.66
2022-11-28T08:34:46.821Z,100388.53
2022-11-28T08:37:13.174Z,100390.50
2022-11-28T08:39:39.481Z,100393.44
2022-11-28T08:42:05.780Z,100384.62
2022-11-28T08:44:32.114Z,100385.87
2022-11-28T08:46:58.463Z,100403.75
2022-11-28T08:49:24.798Z,100384.97
2022-11-28T08:51:51.120Z,100402.63
2022-11-28T08:54:17.448Z,100405.97
2022-11-28T08:56:45.354Z,100399.59
2022-11-28T08:59:11.672Z,100406.00
2022-11-28T09:01:39.671Z,100404.56
2022-11-28T09:04:06.110Z,100395.59
2022-11-28T09:06:32.526Z,100399.69
2022-11-28T09:08:58.883Z,100398.34
2022-11-28T09:11:25.228Z,100415.09
2022-11-28T09:13:51.577Z,100405.44
2022-11-28T09:16:17.986Z,100408.12
2022-11-28T09:18:44.541Z,100407.38
2022-11-28T09:21:11.675Z,100412.09
2022-11-28T09:23:38.064Z,100417.97
2022-11-28T09:26:04.397Z,100406.03
2022-11-28T09:28:30.746Z,100406.09
2022-11-28T09:30:57.118Z,100397.88
2022-11-28T09:33:23.610Z,100396.59
2022-11-28T09:35:49.918Z,100393.13
2022-11-28T09:38:16.353Z,100395.84
2022-11-28T09:40:42.665Z,100387.09
2022-11-28T09:43:08.982Z,100399.44
2022-11-28T09:45:36.351Z,100386.88
2022-11-28T09:48:02.654Z,100388.03
2022-11-28T09:50:28.990Z,100384.00
2022-11-28T09:52:55.408Z,100377.97
2022-11-28T09:55:21.842Z,100371.31
2022-11-28T09:57:48.251Z,100370.91
2022-11-28T10:00:17.704Z,100374.22
2022-11-28T10:02:44.093Z,100382.19
2022-11-28T10:05:10.476Z,100368.87
2022-11-28T10:07:36.912Z,100373.81
2022-11-28T10:10:03.281Z,100369.81
2022-11-28T10:12:29.652Z,100355.84
2022-11-28T10:14:55.970Z,100355.44
2022-11-28T10:17:22.338Z,100347.78
2022-11-28T10:19:55.896Z,100346.47
2022-11-28T10:22:22.353Z,100353.00
2022-11-28T10:24:48.683Z,100341.41
2022-11-28T10:27:15.075Z,100336.72
2022-11-28T10:29:41.763Z,100343.25
2022-11-28T10:32:08.360Z,100345.75
2022-11-28T10:34:34.680Z,100334.47
2022-11-28T10:37:01.408Z,100341.66
2022-11-28T10:39:27.713Z,100349.13
2022-11-28T10:42:11.752Z,100351.91
2022-11-28T10:44:38.119Z,100353.75
2022-11-28T10:47:04.472Z,100348.13
2022-11-28T10:49:30.854Z,100349.88
2022-11-28T10:51:57.239Z,100344.22
2022-11-28T10:54:23.549Z,100350.09
2022-11-28T10:56:49.868Z,100333.47
2022-11-28T10:59:16.667Z,100334.50
2022-11-28T11:01:47.348Z,100341.53
2022-11-28T11:04:16.455Z,100347.09
2022-11-28T11:07:06.809Z,100335.72
2022-11-28T11:09:29.318Z,100337.97
2022-11-28T11:11:55.633Z,100326.00
2022-11-28T11:14:21.956Z,100328.03
2022-11-28T11:16:48.770Z,100325.88
2022-11-28T11:19:15.184Z,100325.88
2022-11-28T11:21:41.515Z,100324.66
2022-11-28T11:24:07.922Z,100318.00
2022-11-28T11:26:34.256Z,100309.78
2022-11-28T11:29:01.505Z,100311.34
2022-11-28T11:31:27.940Z,100308.84
2022-11-28T11:33:54.381Z,100311.94
2022-11-28T11:36:21.375Z,100305.78
2022-11-28T11:38:47.694Z,100308.66
2022-11-28T11:41:14.001Z,100315.41
2022-11-28T11:43:40.418Z,100311.72
2022-11-28T11:46:06.805Z,100310.00
2022-11-28T11:48:33.146Z,100313.78
2022-11-28T11:50:59.465Z,100308.66
2022-11-28T11:53:25.790Z,100306.09
2022-11-28T11:55:52.113Z,100313.34
2022-11-28T11:58:18.435Z,100315.63
2022-11-28T12:00:45.843Z,100316.56
2022-11-28T12:03:12.295Z,100319.72
2022-11-28T12:06:06.138Z,100324.44
2022-11-28T12:08:25.237Z,100330.78
2022-11-28T12:10:51.549Z,100326.91
2022-11-28T12:13:17.886Z,100319.00
2022-11-28T12:15:44.312Z,100326.28
2022-11-28T12:18:10.703Z,100315.41
2022-11-28T12:20:37.131Z,100320.25
2022-11-28T12:23:03.576Z,100317.25
2022-11-28T12:25:29.922Z,100319.09
2022-11-28T12:27:56.587Z,100313.78
2022-11-28T12:30:23.004Z,100313.88
2022-11-28T12:32:49.481Z,100312.16
2022-11-28T12:35:15.867Z,100304.53
2022-11-28T12:38:09.761Z,100313.78
2022-11-28T12:40:28.547Z,100304.53
2022-11-28T12:42:54.927Z,100303.31
2022-11-28T12:45:21.278Z,100306.59
2022-11-28T12:47:47.632Z,100305.69
2022-11-28T12:50:13.983Z,100309.56
2022-11-28T12:52:40.349Z,100308.44
2022-11-28T12:55:06.697Z,100310.00
2022-11-28T12:57:33.569Z,100311.50
2022-11-28T13:00:05.032Z,100311.13
2022-11-28T13:02:34.748Z,100317.06
2022-11-28T13:05:01.260Z,100307.31
2022-11-28T13:07:27.651Z,100306.78
2022-11-28T13:09:54.024Z,100296.62
2022-11-28T13:12:20.430Z,100302.81
2022-11-28T13:14:46.987Z,100310.34
2022-11-28T13:17:13.604Z,100299.91
2022-11-28T13:19:39.963Z,100305.25
2022-11-28T13:22:06.356Z,100309.66
2022-11-28T13:24:32.708Z,100303.31
2022-11-28T13:27:00.419Z,100305.13
2022-11-28T13:29:27.009Z,100307.22
2022-11-28T13:31:56.133Z,100309.38
2022-11-28T13:34:26.736Z,100305.56
2022-11-28T13:39:40.323Z,100296.56
2022-11-28T13:42:28.776Z,100299.31
2022-11-28T13:44:52.984Z,100296.34
2022-11-28T13:47:19.299Z,100278.84
2022-11-28T13:49:45.608Z,100294.50
2022-11-28T13:52:11.943Z,100292.06
2022-11-28T13:54:38.390Z,100291.44
2022-11-28T13:57:04.784Z,100281.69
2022-11-28T13:59:31.105Z,100286.62
2022-11-28T14:01:57.487Z,100284.37
2022-11-28T14:04:23.863Z,100286.44
2022-11-28T14:06:52.218Z,100284.97
2022-11-28T14:09:19.163Z,100283.75
2022-11-28T14:11:46.703Z,100294.19
2022-11-28T14:14:13.274Z,100299.84
2022-11-28T14:16:39.762Z,100303.12
2022-11-28T14:19:06.871Z,100298.63
2022-11-28T14:21:33.227Z,100300.84
2022-11-28T14:23:59.566Z,100296.12
2022-11-28T14:26:29.156Z,100298.63
2022-11-28T14:28:55.466Z,100299.13
2022-11-28T14:31:21.848Z,100296.97
2022-11-28T14:33:48.233Z,100297.81
2022-11-28T14:36:14.690Z,100290.59
2022-11-28T14:38:41.022Z,100296.12
2022-11-28T14:41:09.220Z,100299.66
2022-11-28T14:43:35.588Z,100288.16
2022-11-28T14:46:01.911Z,100294.72
2022-11-28T14:48:29.051Z,100301.37
2022-11-28T14:51:01.373Z,100297.06
2022-11-28T14:53:28.334Z,100302.69
2022-11-28T14:55:58.133Z,100298.28
2022-11-28T14:58:24.482Z,100298.72
2022-11-28T15:00:50.859Z,100305.19
2022-11-28T15:03:17.352Z,100302.41
2022-11-28T15:05:43.809Z,100301.28
2022-11-28T15:08:10.183Z,100298.91
2022-11-28T15:10:36.662Z,100298.50
2022-11-28T15:13:03.165Z,100293.16
2022-11-28T15:15:29.793Z,100299.31
2022-11-28T15:17:56.177Z,100300.94
2022-11-28T15:20:22.589Z,100307.19
2022-11-28T15:22:49.374Z,100308.13
2022-11-28T15:25:15.690Z,100304.53
2022-11-28T15:27:41.997Z,100305.56
2022-11-28T15:30:08.462Z,100291.59
2022-11-28T15:32:34.762Z,100295.41
2022-11-28T15:35:01.222Z,100303.72
2022-11-28T15:37:27.573Z,100303.72
2022-11-28T15:39:53.962Z,100301.25
2022-11-28T15:42:20.283Z,100301.16
2022-11-28T15:44:46.628Z,100298.16
2022-11-28T15:47:12.952Z,100299.84
2022-11-28T15:49:41.181Z,100304.97
2022-11-28T15:52:07.504Z,100302.06
2022-11-28T15:54:33.859Z,100299.00
2022-11-28T15:57:00.175Z,100299.53
2022-11-28T15:59:26.489Z,100300.75
2022-11-28T16:01:57.826Z,100313.94
2022-11-28T16:04:25.994Z,100310.91
2022-11-28T16:06:52.333Z,100306.56
2022-11-28T16:09:18.654Z,100312.53
2022-11-28T16:11:44.973Z,100305.75
2022-11-28T16:14:11.344Z,100308.63
2022-11-28T16:16:37.788Z,100302.28
2022-11-28T16:19:04.203Z,100300.75
2022-11-28T16:21:30.571Z,100304.44
2022-11-28T16:23:57.067Z,100304.13
2022-11-28T16:26:23.412Z,100310.91
2022-11-28T16:28:49.822Z,100303.31
2022-11-28T16:31:16.313Z,100295.13
2022-11-28T16:33:42.710Z,100289.75
2022-11-28T16:36:09.027Z,100290.19
2022-11-28T16:38:35.334Z,100290.09
2022-11-28T16:41:01.724Z,100298.72
2022-11-28T16:43:28.062Z,100290.69
2022-11-28T16:45:54.425Z,100295.22
2022-11-28T16:48:21.817Z,100287.00
2022-11-28T16:50:48.137Z,100285.06
2022-11-28T16:53:14.478Z,100286.06
2022-11-28T16:55:40.853Z,100282.31
2022-11-28T16:58:07.515Z,100286.41
2022-11-28T17:00:33.837Z,100285.88
2022-11-28T17:03:00.189Z,100297.25
2022-11-28T17:05:26.514Z,100295.41
2022-11-28T17:07:52.858Z,100306.44
2022-11-28T17:10:19.195Z,100297.56
2022-11-28T17:12:45.503Z,100298.72
2022-11-28T17:15:11.836Z,100297.87
2022-11-28T17:17:38.158Z,100290.41
2022-11-28T17:20:04.469Z,100294.81
2022-11-28T17:22:31.160Z,100285.34
2022-11-28T17:24:59.260Z,100292.44
2022-11-28T17:27:25.576Z,100290.78
2022-11-28T17:29:52.175Z,100294.50
2022-11-28T17:32:18.495Z,100289.06
2022-11-28T17:34:46.227Z,100284.66
2022-11-28T17:37:15.273Z,100288.03
2022-11-28T17:40:01.609Z,100283.31
2022-11-28T17:42:27.950Z,100285.47
2022-11-28T17:44:54.304Z,100286.50
2022-11-28T17:47:20.623Z,100288.78
2022-11-28T17:49:47.006Z,100290.91
2022-11-28T17:52:13.445Z,100293.34
2022-11-28T17:54:39.783Z,100292.44
2022-11-28T17:57:06.103Z,100289.59
2022-11-28T17:59:34.378Z,100291.94
2022-11-28T18:02:00.782Z,100288.13
2022-11-28T18:04:27.150Z,100299.62
2022-11-28T18:06:53.593Z,100290.09
2022-11-28T18:09:20.051Z,100278.44
2022-11-28T18:11:46.852Z,100283.31
2022-11-28T18:14:13.175Z,100278.31
2022-11-28T18:16:44.063Z,100290.41
2022-11-28T18:19:10.559Z,100289.69
2022-11-28T18:21:36.897Z,100290.41
2022-11-28T18:24:04.756Z,100282.00
2022-11-28T18:26:31.060Z,100276.75
2022-11-28T18:28:57.416Z,100274.53
2022-11-28T18:31:23.783Z,100276.06
2022-11-28T18:33:50.162Z,100275.56
2022-11-28T18:36:16.488Z,100277.09
2022-11-28T18:38:44.808Z,100270.63
2022-11-28T18:41:11.315Z,100281.00
2022-11-28T18:43:37.655Z,100280.78
2022-11-28T18:46:08.052Z,100278.22
2022-11-28T18:48:34.502Z,100294.41
2022-11-28T18:51:00.969Z,100284.47
2022-11-28T18:53:27.351Z,100294.41
2022-11-28T18:55:53.671Z,100290.81
2022-11-28T18:58:19.997Z,100288.66
2022-11-28T19:00:46.345Z,100293.81
2022-11-28T19:03:12.710Z,100285.81
2022-11-28T19:05:39.444Z,100286.09
2022-11-28T19:08:05.876Z,100284.69
2022-11-28T19:10:32.194Z,100283.22
2022-11-28T19:12:58.557Z,100276.16
2022-11-28T19:15:24.879Z,100276.38
2022-11-28T19:17:51.322Z,100275.75
2022-11-28T19:20:18.400Z,100281.09
2022-11-28T19:22:44.885Z,100286.00
2022-11-28T19:25:11.205Z,100280.28
2022-11-28T19:27:37.590Z,100278.72
2022-11-28T19:30:03.906Z,100274.94
2022-11-28T19:32:30.298Z,100283.66
2022-11-28T19:34:56.716Z,100274.31
2022-11-28T19:37:23.054Z,100272.38
2022-11-28T19:39:49.371Z,100283.97
2022-11-28T19:42:16.381Z,100286.09
2022-11-28T19:44:42.695Z,100285.19
2022-11-28T19:47:09.118Z,100277.69
2022-11-28T19:49:35.492Z,100281.81
2022-11-28T19:52:01.802Z,100274.63
2022-11-28T19:54:28.209Z,100275.25
2022-11-28T19:56:54.616Z,100270.41
2022-11-28T19:59:20.961Z,100275.84
2022-11-28T20:01:49.992Z,100283.22
2022-11-28T20:04:16.505Z,100295.97
2022-11-28T20:06:42.857Z,100300.84
2022-11-28T20:09:09.224Z,100291.13
2022-11-28T20:11:35.586Z,100289.06
2022-11-28T20:14:01.936Z,100297.91
2022-11-28T20:16:28.305Z,100302.59
2022-11-28T20:18:54.791Z,100298.91
2022-11-28T20:21:21.401Z,100299.94
2022-11-28T20:23:47.742Z,100300.44
2022-11-28T20:26:14.076Z,100304.63
2022-11-28T20:28:40.383Z,100302.66
2022-11-28T20:31:06.833Z,100300.12
2022-11-28T20:33:33.135Z,100302.50
2022-11-28T20:36:00.060Z,100304.84
2022-11-28T20:38:26.425Z,100301.47
2022-11-28T20:40:52.961Z,100308.63
2022-11-28T20:43:19.306Z,100310.69
2022-11-28T20:45:45.684Z,100299.44
2022-11-28T20:48:12.021Z,100306.19
2022-11-28T20:50:38.329Z,100306.09
2022-11-28T20:53:04.667Z,100307.50
2022-11-28T20:55:30.978Z,100309.66
2022-11-28T20:57:57.299Z,100303.81
2022-11-28T21:00:26.707Z,100300.66
2022-11-28T21:02:53.319Z,100297.16
2022-11-28T21:05:19.900Z,100305.19
2022-11-28T21:07:46.480Z,100304.03
2022-11-28T21:10:12.825Z,100309.47
2022-11-28T21:12:39.139Z,100318.19
2022-11-28T21:15:05.475Z,100321.84
2022-11-28T21:17:32.867Z,100313.56
2022-11-28T21:19:59.194Z,100314.69
2022-11-28T21:22:25.511Z,100316.75
2022-11-28T21:24:51.878Z,100324.13
2022-11-28T21:27:18.215Z,100319.41
2022-11-28T21:29:45.738Z,100312.25
2022-11-28T21:32:13.691Z,100314.91
2022-11-28T21:34:40.056Z,100322.59
2022-11-28T21:37:06.378Z,100314.81
2022-11-28T21:39:32.904Z,100311.66
2022-11-28T21:41:59.206Z,100321.38
2022-11-28T21:44:25.525Z,100312.97
2022-11-28T21:46:51.839Z,100307.53
2022-11-28T21:49:18.244Z,100313.06
2022-11-28T21:51:44.561Z,100312.97
2022-11-28T21:54:10.951Z,100309.81
2022-11-28T21:56:37.291Z,100308.97
2022-11-28T21:59:04.461Z,100313.16
2022-11-28T22:01:30.815Z,100306.00
2022-11-28T22:04:02.155Z,100310.91
2022-11-28T22:06:29.374Z,100310.19
2022-11-28T22:08:55.730Z,100311.31
2022-11-28T22:11:22.106Z,100306.81
2022-11-28T22:13:49.004Z,100313.38
2022-11-28T22:16:15.441Z,100312.66
2022-11-28T22:18:41.843Z,100303.94
2022-11-28T22:21:28.493Z,100308.84
2022-11-28T22:23:55.221Z,100307.22
2022-11-28T22:26:21.838Z,100309.47
2022-11-28T22:28:53.529Z,100312.97
2022-11-28T22:31:20.621Z,100311.22
2022-11-28T22:33:47.034Z,100305.47
2022-11-28T22:36:13.799Z,100309.88
2022-11-28T22:38:40.116Z,100319.41
2022-11-28T22:41:06.434Z,100315.50
2022-11-28T22:43:32.751Z,100321.56
2022-11-28T22:45:59.176Z,100323.41
2022-11-28T22:48:25.627Z,100319.81
2022-11-28T22:50:51.988Z,100319.94
2022-11-28T22:53:18.318Z,100327.00
2022-11-28T22:55:44.656Z,100319.41
2022-11-28T22:58:10.971Z,100327.50
2022-11-28T23:00:37.394Z,100326.28
2022-11-28T23:03:03.847Z,100331.50
2022-11-28T23:05:30.238Z,100330.16
2022-11-28T23:07:56.638Z,100327.00
2022-11-28T23:10:23.021Z,100323.81
2022-11-28T23:12:49.432Z,100321.56
2022-11-28T23:15:15.845Z,100324.63
2022-11-28T23:17:42.256Z,100328.53
2022-11-28T23:20:08.566Z,100327.12
2022-11-28T23:22:35.863Z,100321.56
2022-11-28T23:25:02.161Z,100317.69
2022-11-28T23:27:28.488Z,100323.62
2022-11-28T23:29:54.859Z,100327.00
2022-11-28T23:32:21.176Z,100328.87
2022-11-28T23:34:50.559Z,100325.75
2022-11-28T23:37:16.885Z,100328.53
2022-11-28T23:39:43.244Z,100319.63
2022-11-28T23:42:09.563Z,100322.72
2022-11-28T23:44:35.889Z,100332.31
2022-11-28T23:47:02.252Z,100329.56
2022-11-28T23:49:28.637Z,100320.12
2022-11-28T23:51:54.982Z,100318.50
2022-11-28T23:54:21.295Z,100331.72
2022-11-28T23:56:47.650Z,100325.56
2022-11-28T23:59:14.033Z,100319.94
